createdAt,value
2023-02-27T00:00:37.596Z,51.212109
2023-02-27T00:01:37.489Z,51.212063
2023-02-27T00:02:37.569Z,51.212147
2023-02-27T00:03:37.583Z,51.212120
2023-02-27T00:04:37.541Z,51.212128
2023-02-27T00:05:37.505Z,51.212120
2023-02-27T00:06:37.497Z,51.212215
2023-02-27T00:07:37.478Z,51.212219
2023-02-27T00:08:37.530Z,51.212185
2023-02-27T00:09:37.472Z,51.212120
2023-02-27T00:10:37.507Z,51.212055
2023-02-27T00:11:37.480Z,51.212200
2023-02-27T00:12:37.483Z,51.212185
2023-02-27T00:13:37.421Z,51.212223
2023-02-27T00:14:37.472Z,51.212238
2023-02-27T00:15:37.422Z,51.212200
2023-02-27T00:16:37.502Z,51.212219
2023-02-27T00:17:37.495Z,51.212231
2023-02-27T00:18:37.435Z,51.212208
2023-02-27T00:19:37.443Z,51.212223
2023-02-27T00:20:37.401Z,51.212273
2023-02-27T00:21:38.205Z,51.212265
2023-02-27T00:22:37.419Z,51.212364
2023-02-27T00:23:37.381Z,51.212296
2023-02-27T00:24:38.385Z,51.212292
2023-02-27T00:25:37.410Z,51.212173
2023-02-27T00:26:37.395Z,51.212193
2023-02-27T00:27:37.351Z,51.212173
2023-02-27T00:28:37.353Z,51.212227
2023-02-27T00:29:37.348Z,51.212193
2023-02-27T00:30:37.384Z,51.212166
2023-02-27T00:31:37.395Z,51.212109
2023-02-27T00:32:37.351Z,51.212090
2023-02-27T00:33:37.327Z,51.212097
2023-02-27T00:34:38.332Z,51.212109
2023-02-27T00:35:37.349Z,51.212078
2023-02-27T00:36:37.339Z,51.212086
2023-02-27T00:37:37.335Z,51.212166
2023-02-27T00:38:37.349Z,51.212196
2023-02-27T00:39:37.284Z,51.212173
2023-02-27T00:40:37.315Z,51.212082
2023-02-27T00:41:37.309Z,51.212181
2023-02-27T00:42:37.300Z,51.212219
2023-02-27T00:43:37.291Z,51.212196
2023-02-27T00:44:37.255Z,51.212185
2023-02-27T00:45:37.288Z,51.212101
2023-02-27T00:46:37.317Z,51.212055
2023-02-27T00:47:37.301Z,51.212139
2023-02-27T00:48:37.243Z,51.212105
2023-02-27T00:49:37.231Z,51.212086
2023-02-27T00:50:37.275Z,51.212204
2023-02-27T00:51:37.297Z,51.212124
2023-02-27T00:52:38.426Z,51.212109
2023-02-27T00:53:37.213Z,51.212200
2023-02-27T00:54:37.250Z,51.212093
2023-02-27T00:55:37.262Z,51.212112
2023-02-27T00:56:37.208Z,51.212097
2023-02-27T00:57:37.243Z,51.212086
2023-02-27T00:58:37.202Z,51.212177
2023-02-27T00:59:37.239Z,51.212223
2023-02-27T01:00:37.280Z,51.212250
2023-02-27T01:01:37.208Z,51.212257
2023-02-27T01:02:37.206Z,51.212292
2023-02-27T01:03:37.200Z,51.212261
2023-02-27T01:04:38.134Z,51.212204
2023-02-27T01:05:37.150Z,51.212250
2023-02-27T01:06:37.171Z,51.212242
2023-02-27T01:07:37.230Z,51.212151
2023-02-27T01:08:37.183Z,51.212265
2023-02-27T01:09:37.230Z,51.212196
2023-02-27T01:10:37.159Z,51.212227
2023-02-27T01:11:37.189Z,51.212238
2023-02-27T01:12:37.140Z,51.212219
2023-02-27T01:13:37.143Z,51.212166
2023-02-27T01:14:37.138Z,51.212166
2023-02-27T01:15:37.160Z,51.212120
2023-02-27T01:16:37.175Z,51.212158
2023-02-27T01:17:37.196Z,51.212185
2023-02-27T01:18:37.105Z,51.212143
2023-02-27T01:19:37.101Z,51.212128
2023-02-27T01:20:37.157Z,51.212139
2023-02-27T01:21:37.147Z,51.212166
2023-02-27T01:22:37.193Z,51.212067
2023-02-27T01:23:37.121Z,51.212025
2023-02-27T01:24:37.106Z,51.211914
2023-02-27T01:25:37.784Z,51.211891
2023-02-27T01:26:37.054Z,51.211800
2023-02-27T01:27:37.047Z,51.211815
2023-02-27T01:28:37.130Z,51.212048
2023-02-27T01:29:37.054Z,51.212067
2023-02-27T01:30:37.047Z,51.212162
2023-02-27T01:31:37.110Z,51.212132
2023-02-27T01:32:37.046Z,51.212097
2023-02-27T01:33:37.019Z,51.212128
2023-02-27T01:34:37.044Z,51.212105
2023-02-27T01:35:37.009Z,51.212132
2023-02-27T01:36:37.022Z,51.212036
2023-02-27T01:37:37.039Z,51.212055
2023-02-27T01:38:37.005Z,51.212135
2023-02-27T01:39:36.997Z,51.212055
2023-02-27T01:40:36.999Z,51.212013
2023-02-27T01:41:37.035Z,51.211926
2023-02-27T01:42:37.053Z,51.212029
2023-02-27T01:43:36.985Z,51.212132
2023-02-27T01:44:36.989Z,51.212074
2023-02-27T01:45:37.047Z,51.212120
2023-02-27T01:46:36.988Z,51.212086
2023-02-27T01:47:36.941Z,51.212124
2023-02-27T01:48:36.966Z,51.212139
2023-02-27T01:49:36.937Z,51.212185
2023-02-27T01:50:37.941Z,51.211914
2023-02-27T01:51:36.961Z,51.211937
2023-02-27T01:52:36.972Z,51.212051
2023-02-27T01:53:37.734Z,51.212082
2023-02-27T01:54:36.915Z,51.212082
2023-02-27T01:55:36.895Z,51.212185
2023-02-27T01:56:37.637Z,51.212177
2023-02-27T01:57:36.962Z,51.212246
2023-02-27T01:58:36.911Z,51.212074
2023-02-27T01:59:37.631Z,51.212143
2023-02-27T02:00:36.893Z,51.212234
2023-02-27T02:01:36.975Z,51.212349
2023-02-27T02:02:36.988Z,51.212154
2023-02-27T02:03:36.906Z,51.212173
2023-02-27T02:04:36.856Z,51.212128
2023-02-27T02:05:36.871Z,51.212185
2023-02-27T02:06:36.852Z,51.212177
2023-02-27T02:07:36.833Z,51.212173
2023-02-27T02:08:36.879Z,51.212402
2023-02-27T02:09:36.822Z,51.212311
2023-02-27T02:10:36.831Z,51.212360
2023-02-27T02:11:36.832Z,51.212315
2023-02-27T02:12:36.809Z,51.212345
2023-02-27T02:13:36.830Z,51.212399
2023-02-27T02:14:36.802Z,51.212185
2023-02-27T02:15:36.812Z,51.212017
2023-02-27T02:16:36.828Z,51.212055
2023-02-27T02:17:36.795Z,51.212170
2023-02-27T02:18:36.842Z,51.212299
2023-02-27T02:19:36.809Z,51.212433
2023-02-27T02:20:36.777Z,51.212486
2023-02-27T02:21:37.688Z,51.212353
2023-02-27T02:22:36.770Z,51.212223
2023-02-27T02:23:36.764Z,51.212391
2023-02-27T02:24:36.782Z,51.212318
2023-02-27T02:25:36.752Z,51.212151
2023-02-27T02:26:36.759Z,51.212055
2023-02-27T02:27:36.737Z,51.212082
2023-02-27T02:28:36.737Z,51.212093
2023-02-27T02:29:36.727Z,51.212105
2023-02-27T02:30:36.857Z,51.212036
2023-02-27T02:31:36.805Z,51.212139
2023-02-27T02:32:36.721Z,51.212067
2023-02-27T02:33:36.693Z,51.212009
2023-02-27T02:34:36.688Z,51.211899
2023-02-27T02:35:36.802Z,51.211887
2023-02-27T02:36:36.709Z,51.211937
2023-02-27T02:37:36.681Z,51.212147
2023-02-27T02:38:36.690Z,51.212158
2023-02-27T02:39:36.686Z,51.212292
2023-02-27T02:40:36.680Z,51.212002
2023-02-27T02:41:36.691Z,51.212116
2023-02-27T02:42:36.685Z,51.212074
2023-02-27T02:43:36.663Z,51.212124
2023-02-27T02:44:36.666Z,51.212120
2023-02-27T02:45:36.745Z,51.212139
2023-02-27T02:46:36.638Z,51.212158
2023-02-27T02:47:36.651Z,51.212215
2023-02-27T02:48:36.647Z,51.212193
2023-02-27T02:49:36.660Z,51.212234
2023-02-27T02:50:37.182Z,51.212234
2023-02-27T02:51:36.632Z,51.212032
2023-02-27T02:52:36.646Z,51.211761
2023-02-27T02:53:37.605Z,51.211723
2023-02-27T02:54:37.594Z,51.211494
2023-02-27T02:55:36.633Z,51.211800
2023-02-27T02:56:36.619Z,51.211922
2023-02-27T02:57:36.584Z,51.212029
2023-02-27T02:58:36.579Z,51.212109
2023-02-27T02:59:36.572Z,51.212017
2023-02-27T03:00:36.569Z,51.211567
2023-02-27T03:01:36.624Z,51.211384
2023-02-27T03:02:36.565Z,51.211945
2023-02-27T03:03:36.571Z,51.211849
2023-02-27T03:04:36.639Z,51.211910
2023-02-27T03:05:36.526Z,51.212204
2023-02-27T03:06:36.564Z,51.212250
2023-02-27T03:07:36.630Z,51.212166
2023-02-27T03:08:36.540Z,51.212166
2023-02-27T03:09:36.522Z,51.212135
2023-02-27T03:10:36.552Z,51.212307
2023-02-27T03:11:36.523Z,51.212254
2023-02-27T03:12:36.543Z,51.212219
2023-02-27T03:13:36.507Z,51.212288
2023-02-27T03:14:36.526Z,51.212357
2023-02-27T03:15:36.518Z,51.211823
2023-02-27T03:16:36.497Z,51.211933
2023-02-27T03:17:36.514Z,51.211918
2023-02-27T03:18:36.480Z,51.212017
2023-02-27T03:19:36.473Z,51.212078
2023-02-27T03:20:36.553Z,51.212002
2023-02-27T03:21:36.502Z,51.212048
2023-02-27T03:22:36.462Z,51.212173
2023-02-27T03:23:36.493Z,51.212219
2023-02-27T03:24:36.468Z,51.212063
2023-02-27T03:25:36.474Z,51.212093
2023-02-27T03:26:36.447Z,51.212139
2023-02-27T03:27:36.462Z,51.212170
2023-02-27T03:28:36.446Z,51.212193
2023-02-27T03:29:36.438Z,51.212162
2023-02-27T03:30:36.483Z,51.212162
2023-02-27T03:31:36.515Z,51.212116
2023-02-27T03:32:36.456Z,51.212021
2023-02-27T03:33:36.414Z,51.211948
2023-02-27T03:34:36.424Z,51.212059
2023-02-27T03:35:36.373Z,51.212135
2023-02-27T03:36:36.377Z,51.212170
2023-02-27T03:37:36.380Z,51.212105
2023-02-27T03:38:36.374Z,51.212109
2023-02-27T03:39:36.408Z,51.212097
2023-02-27T03:40:36.389Z,51.212101
2023-02-27T03:41:36.354Z,51.212200
2023-02-27T03:42:36.360Z,51.212154
2023-02-27T03:43:36.402Z,51.212090
2023-02-27T03:44:36.346Z,51.212090
2023-02-27T03:45:36.343Z,51.212124
2023-02-27T03:46:36.362Z,51.212154
2023-02-27T03:47:36.325Z,51.212135
2023-02-27T03:48:37.353Z,51.212166
2023-02-27T03:49:36.311Z,51.212086
2023-02-27T03:50:36.297Z,51.212223
2023-02-27T03:51:36.354Z,51.212025
2023-02-27T03:52:36.291Z,51.212025
2023-02-27T03:53:36.315Z,51.212082
2023-02-27T03:54:36.345Z,51.211945
2023-02-27T03:55:36.286Z,51.211948
2023-02-27T03:56:36.286Z,51.212009
2023-02-27T03:57:36.302Z,51.212048
2023-02-27T03:58:36.287Z,51.211754
2023-02-27T03:59:36.294Z,51.211948
2023-02-27T04:00:36.290Z,51.211899
2023-02-27T04:01:36.280Z,51.212044
2023-02-27T04:02:36.424Z,51.212177
2023-02-27T04:03:36.264Z,51.212120
2023-02-27T04:04:36.244Z,51.212055
2023-02-27T04:05:36.290Z,51.211948
2023-02-27T04:06:36.231Z,51.212059
2023-02-27T04:07:36.227Z,51.212189
2023-02-27T04:08:36.279Z,51.212009
2023-02-27T04:09:36.239Z,51.212181
2023-02-27T04:10:36.264Z,51.212124
2023-02-27T04:11:36.230Z,51.212109
2023-02-27T04:12:36.203Z,51.212090
2023-02-27T04:13:36.225Z,51.212132
2023-02-27T04:14:36.221Z,51.212132
2023-02-27T04:15:36.206Z,51.212170
2023-02-27T04:16:36.206Z,51.212151
2023-02-27T04:17:36.182Z,51.212193
2023-02-27T04:18:36.177Z,51.212311
2023-02-27T04:19:36.193Z,51.212250
2023-02-27T04:20:36.158Z,51.212170
2023-02-27T04:21:36.176Z,51.212292
2023-02-27T04:22:36.147Z,51.212292
2023-02-27T04:23:36.148Z,51.212208
2023-02-27T04:24:36.166Z,51.212193
2023-02-27T04:25:36.146Z,51.212162
2023-02-27T04:26:36.140Z,51.212173
2023-02-27T04:27:36.132Z,51.212223
2023-02-27T04:28:36.129Z,51.212067
2023-02-27T04:29:36.138Z,51.211975
2023-02-27T04:30:36.118Z,51.212097
2023-02-27T04:31:36.236Z,51.212143
2023-02-27T04:32:36.275Z,51.212124
2023-02-27T04:33:36.086Z,51.212132
2023-02-27T04:34:36.115Z,51.212231
2023-02-27T04:35:36.081Z,51.212204
2023-02-27T04:36:36.113Z,51.212177
2023-02-27T04:37:36.121Z,51.212215
2023-02-27T04:38:36.097Z,51.212177
2023-02-27T04:39:37.101Z,51.212181
2023-02-27T04:40:36.112Z,51.212162
2023-02-27T04:41:36.080Z,51.212227
2023-02-27T04:42:36.052Z,51.212185
2023-02-27T04:43:36.054Z,51.212143
2023-02-27T04:44:36.063Z,51.212128
2023-02-27T04:45:36.199Z,51.212173
2023-02-27T04:46:36.033Z,51.212158
2023-02-27T04:47:36.040Z,51.212147
2023-02-27T04:48:36.031Z,51.212032
2023-02-27T04:49:36.067Z,51.212112
2023-02-27T04:50:36.100Z,51.212112
2023-02-27T04:51:36.057Z,51.212139
2023-02-27T04:52:36.011Z,51.212029
2023-02-27T04:53:36.025Z,51.211964
2023-02-27T04:54:35.997Z,51.212097
2023-02-27T04:55:36.015Z,51.212090
2023-02-27T04:56:35.984Z,51.212105
2023-02-27T04:57:36.022Z,51.212219
2023-02-27T04:58:35.967Z,51.212116
2023-02-27T04:59:35.954Z,51.212257
2023-02-27T05:00:35.964Z,51.212254
2023-02-27T05:01:35.982Z,51.212105
2023-02-27T05:02:36.171Z,51.212063
2023-02-27T05:03:35.947Z,51.212097
2023-02-27T05:04:35.980Z,51.212170
2023-02-27T05:05:35.982Z,51.212128
2023-02-27T05:06:35.926Z,51.212116
2023-02-27T05:07:35.934Z,51.212116
2023-02-27T05:08:35.927Z,51.212105
2023-02-27T05:09:35.915Z,51.212101
2023-02-27T05:10:35.928Z,51.212006
2023-02-27T05:11:35.896Z,51.211933
2023-02-27T05:12:35.911Z,51.212124
2023-02-27T05:13:35.886Z,51.212059
2023-02-27T05:14:35.889Z,51.212128
2023-02-27T05:15:36.008Z,51.212112
2023-02-27T05:16:35.935Z,51.212029
2023-02-27T05:17:35.898Z,51.211990
2023-02-27T05:18:35.873Z,51.211994
2023-02-27T05:19:35.886Z,51.211899
2023-02-27T05:20:35.864Z,51.212101
2023-02-27T05:21:35.865Z,51.211910
2023-02-27T05:22:35.873Z,51.211937
2023-02-27T05:23:35.831Z,51.212002
2023-02-27T05:24:35.854Z,51.212124
2023-02-27T05:25:35.858Z,51.212158
2023-02-27T05:26:35.847Z,51.212139
2023-02-27T05:27:35.821Z,51.212147
2023-02-27T05:28:35.825Z,51.212009
2023-02-27T05:29:35.827Z,51.212154
2023-02-27T05:30:35.794Z,51.212101
2023-02-27T05:31:35.809Z,51.212021
2023-02-27T05:32:35.917Z,51.212044
2023-02-27T05:33:35.782Z,51.211967
2023-02-27T05:34:35.797Z,51.211987
2023-02-27T05:35:35.880Z,51.211807
2023-02-27T05:36:35.767Z,51.211967
2023-02-27T05:37:35.810Z,51.211926
2023-02-27T05:38:35.765Z,51.211933
2023-02-27T05:39:35.774Z,51.212067
2023-02-27T05:40:35.741Z,51.212139
2023-02-27T05:41:36.665Z,51.212017
2023-02-27T05:42:35.760Z,51.211788
2023-02-27T05:43:35.749Z,51.211914
2023-02-27T05:44:35.841Z,51.211967
2023-02-27T05:45:35.736Z,51.211983
2023-02-27T05:46:35.726Z,51.211987
2023-02-27T05:47:35.717Z,51.211971
2023-02-27T05:48:35.754Z,51.211914
2023-02-27T05:49:35.731Z,51.211937
2023-02-27T05:50:35.668Z,51.211887
2023-02-27T05:51:35.726Z,51.211903
2023-02-27T05:52:35.753Z,51.211857
2023-02-27T05:53:35.684Z,51.211899
2023-02-27T05:54:35.752Z,51.212040
2023-02-27T05:55:35.744Z,51.212059
2023-02-27T05:56:35.693Z,51.212055
2023-02-27T05:57:35.654Z,51.212029
2023-02-27T05:58:35.713Z,51.211967
2023-02-27T05:59:35.653Z,51.211872
2023-02-27T06:00:35.669Z,51.211948
2023-02-27T06:01:37.191Z,51.211956
2023-02-27T06:02:35.665Z,51.211956
2023-02-27T06:03:35.780Z,51.211979
2023-02-27T06:04:35.622Z,51.211819
2023-02-27T06:05:35.629Z,51.212223
2023-02-27T06:06:35.636Z,51.212273
2023-02-27T06:07:35.622Z,51.212116
2023-02-27T06:08:35.617Z,51.211975
2023-02-27T06:09:35.639Z,51.211926
2023-02-27T06:10:35.565Z,51.211838
2023-02-27T06:11:35.605Z,51.211899
2023-02-27T06:12:35.593Z,51.211823
2023-02-27T06:13:35.578Z,51.211750
2023-02-27T06:14:35.563Z,51.211758
2023-02-27T06:15:35.604Z,51.211750
2023-02-27T06:16:35.574Z,51.211643
2023-02-27T06:17:35.539Z,51.211342
2023-02-27T06:18:35.546Z,51.211342
2023-02-27T06:19:35.537Z,51.211639
2023-02-27T06:20:35.615Z,51.211834
2023-02-27T06:21:35.518Z,51.211922
2023-02-27T06:22:35.528Z,51.211903
2023-02-27T06:23:35.599Z,51.211838
2023-02-27T06:24:35.514Z,51.211792
2023-02-27T06:25:35.496Z,51.211994
2023-02-27T06:26:35.524Z,51.211956
2023-02-27T06:27:35.529Z,51.211945
2023-02-27T06:28:35.512Z,51.212074
2023-02-27T06:29:35.497Z,51.212189
2023-02-27T06:30:35.532Z,51.212147
2023-02-27T06:31:35.482Z,51.212151
2023-02-27T06:32:35.481Z,51.212173
2023-02-27T06:33:35.484Z,51.212234
2023-02-27T06:34:35.470Z,51.212238
2023-02-27T06:35:36.218Z,51.212238
2023-02-27T06:36:35.496Z,51.212132
2023-02-27T06:37:35.448Z,51.212021
2023-02-27T06:38:35.444Z,51.212166
2023-02-27T06:39:35.478Z,51.212143
2023-02-27T06:40:35.455Z,51.212132
2023-02-27T06:41:35.411Z,51.212078
2023-02-27T06:42:35.409Z,51.212029
2023-02-27T06:43:35.409Z,51.212116
2023-02-27T06:44:35.430Z,51.212097
2023-02-27T06:45:35.420Z,51.212158
2023-02-27T06:46:35.513Z,51.212154
2023-02-27T06:47:35.396Z,51.212200
2023-02-27T06:48:35.405Z,51.212109
2023-02-27T06:49:35.396Z,51.212124
2023-02-27T06:50:35.383Z,51.212120
2023-02-27T06:51:35.356Z,51.212124
2023-02-27T06:52:35.339Z,51.212112
2023-02-27T06:53:35.370Z,51.211987
2023-02-27T06:54:35.338Z,51.211987
2023-02-27T06:55:35.332Z,51.211880
2023-02-27T06:56:35.355Z,51.212029
2023-02-27T06:57:35.358Z,51.212105
2023-02-27T06:58:35.319Z,51.212097
2023-02-27T06:59:35.305Z,51.212044
2023-02-27T07:00:35.334Z,51.212082
2023-02-27T07:01:35.338Z,51.212105
2023-02-27T07:02:35.301Z,51.212059
2023-02-27T07:03:35.334Z,51.212093
2023-02-27T07:04:35.311Z,51.212097
2023-02-27T07:05:35.292Z,51.212067
2023-02-27T07:07:33.798Z,51.212135
2023-02-27T07:07:37.849Z,51.212082
2023-02-27T07:08:36.279Z,51.212090
2023-02-27T07:09:35.260Z,51.212116
2023-02-27T07:10:35.260Z,51.212112
2023-02-27T07:11:35.241Z,51.212177
2023-02-27T07:12:35.281Z,51.212257
2023-02-27T07:13:35.250Z,51.212196
2023-02-27T07:14:35.232Z,51.212154
2023-02-27T07:15:35.302Z,51.212093
2023-02-27T07:16:35.238Z,51.212128
2023-02-27T07:17:35.220Z,51.212193
2023-02-27T07:18:35.208Z,51.212234
2023-02-27T07:19:35.224Z,51.212162
2023-02-27T07:20:35.228Z,51.212177
2023-02-27T07:21:35.205Z,51.212170
2023-02-27T07:22:35.211Z,51.212128
2023-02-27T07:23:35.198Z,51.212120
2023-02-27T07:24:35.201Z,51.212105
2023-02-27T07:25:35.183Z,51.212059
2023-02-27T07:26:35.172Z,51.212055
2023-02-27T07:27:35.192Z,51.212139
2023-02-27T07:28:35.189Z,51.212078
2023-02-27T07:29:35.198Z,51.212158
2023-02-27T07:30:35.148Z,51.212090
2023-02-27T07:31:35.182Z,51.212059
2023-02-27T07:32:35.125Z,51.212032
2023-02-27T07:33:36.131Z,51.211926
2023-02-27T07:34:35.153Z,51.211906
2023-02-27T07:35:35.151Z,51.212074
2023-02-27T07:36:35.103Z,51.212158
2023-02-27T07:37:35.113Z,51.212132
2023-02-27T07:38:35.094Z,51.212032
2023-02-27T07:39:35.089Z,51.212132
2023-02-27T07:40:35.114Z,51.212132
2023-02-27T07:41:35.106Z,51.212200
2023-02-27T07:42:35.146Z,51.212166
2023-02-27T07:43:35.080Z,51.212032
2023-02-27T07:44:35.074Z,51.211845
2023-02-27T07:45:35.061Z,51.211941
2023-02-27T07:46:35.150Z,51.212067
2023-02-27T07:47:35.061Z,51.212067
2023-02-27T07:48:35.073Z,51.212147
2023-02-27T07:49:35.033Z,51.212025
2023-02-27T07:50:35.057Z,51.211979
2023-02-27T07:51:35.077Z,51.212097
2023-02-27T07:52:35.035Z,51.211937
2023-02-27T07:53:35.019Z,51.212044
2023-02-27T07:54:35.708Z,51.212132
2023-02-27T07:55:34.997Z,51.212196
2023-02-27T07:56:35.010Z,51.212173
2023-02-27T07:57:35.040Z,51.211983
2023-02-27T07:58:34.985Z,51.212013
2023-02-27T07:59:34.998Z,51.212101
2023-02-27T08:00:34.986Z,51.212193
2023-02-27T08:01:34.965Z,51.212040
2023-02-27T08:02:35.008Z,51.212112
2023-02-27T08:03:34.968Z,51.212044
2023-02-27T08:04:34.996Z,51.212223
2023-02-27T08:05:34.954Z,51.212296
2023-02-27T08:06:34.934Z,51.212078
2023-02-27T08:07:34.922Z,51.212078
2023-02-27T08:08:34.951Z,51.211979
2023-02-27T08:09:34.901Z,51.212029
2023-02-27T08:10:34.908Z,51.212395
2023-02-27T08:11:34.908Z,51.212158
2023-02-27T08:12:34.905Z,51.212044
2023-02-27T08:14:02.080Z,51.212116
2023-02-27T08:14:36.887Z,51.212090
2023-02-27T08:15:34.891Z,51.212101
2023-02-27T08:16:34.895Z,51.211861
2023-02-27T08:17:34.885Z,51.211971
2023-02-27T08:18:35.105Z,51.211784
2023-02-27T08:19:35.870Z,51.212246
2023-02-27T08:20:34.858Z,51.211983
2023-02-27T08:21:34.907Z,51.211975
2023-02-27T08:22:34.885Z,51.211906
2023-02-27T08:23:34.907Z,51.211903
2023-02-27T08:24:34.907Z,51.211571
2023-02-27T08:25:34.849Z,51.211895
2023-02-27T08:26:34.875Z,51.212086
2023-02-27T08:27:34.813Z,51.212112
2023-02-27T08:28:34.828Z,51.212063
2023-02-27T08:29:34.850Z,51.212082
2023-02-27T08:30:34.813Z,51.212044
2023-02-27T08:31:34.783Z,51.212170
2023-02-27T08:32:34.841Z,51.212006
2023-02-27T08:33:34.776Z,51.212009
2023-02-27T08:34:34.769Z,51.211998
2023-02-27T08:35:34.817Z,51.212101
2023-02-27T08:36:35.741Z,51.211990
2023-02-27T08:37:34.760Z,51.212135
2023-02-27T08:38:34.751Z,51.212074
2023-02-27T08:39:34.731Z,51.212040
2023-02-27T08:40:34.731Z,51.212173
2023-02-27T08:41:34.778Z,51.212296
2023-02-27T08:42:34.694Z,51.212093
2023-02-27T08:43:34.705Z,51.212139
2023-02-27T08:44:34.689Z,51.212090
2023-02-27T08:45:34.724Z,51.212242
2023-02-27T08:46:34.709Z,51.211987
2023-02-27T08:47:34.677Z,51.212124
2023-02-27T08:48:34.681Z,51.212170
2023-02-27T08:49:34.687Z,51.212212
2023-02-27T08:50:34.655Z,51.212204
2023-02-27T08:51:35.662Z,51.212254
2023-02-27T08:52:34.679Z,51.212196
2023-02-27T08:53:34.668Z,51.212231
2023-02-27T08:54:34.697Z,51.212154
2023-02-27T08:55:34.634Z,51.212059
2023-02-27T08:56:34.689Z,51.212109
2023-02-27T08:57:34.629Z,51.212219
2023-02-27T08:58:34.606Z,51.212185
2023-02-27T08:59:34.595Z,51.212234
2023-02-27T09:00:34.655Z,51.212368
2023-02-27T09:01:34.772Z,51.212128
2023-02-27T09:02:34.598Z,51.212078
2023-02-27T09:03:34.634Z,51.212135
2023-02-27T09:04:34.556Z,51.212170
2023-02-27T09:05:34.559Z,51.212196
2023-02-27T09:06:34.552Z,51.212139
2023-02-27T09:07:34.600Z,51.212128
2023-02-27T09:08:34.562Z,51.212170
2023-02-27T09:09:34.518Z,51.212204
2023-02-27T09:10:34.563Z,51.212177
2023-02-27T09:11:35.341Z,51.212112
2023-02-27T09:12:34.510Z,51.212086
2023-02-27T09:13:34.493Z,51.212086
2023-02-27T09:14:34.520Z,51.212074
2023-02-27T09:15:34.479Z,51.212090
2023-02-27T09:16:34.547Z,51.212124
2023-02-27T09:17:34.513Z,51.212105
2023-02-27T09:18:34.477Z,51.212105
2023-02-27T09:19:34.489Z,51.212109
2023-02-27T09:20:34.457Z,51.212166
2023-02-27T09:21:34.451Z,51.212208
2023-02-27T09:22:34.510Z,51.212265
2023-02-27T09:23:34.427Z,51.212246
2023-02-27T09:24:34.455Z,51.212200
2023-02-27T09:25:34.505Z,51.212082
2023-02-27T09:26:43.665Z,51.212135
2023-02-27T09:27:36.418Z,51.212112
2023-02-27T09:28:34.501Z,51.212193
2023-02-27T09:29:34.394Z,51.212181
2023-02-27T09:30:34.525Z,51.212231
2023-02-27T09:31:34.798Z,51.212177
2023-02-27T09:32:34.519Z,51.212246
2023-02-27T09:33:34.366Z,51.212200
2023-02-27T09:34:34.412Z,51.212208
2023-02-27T09:35:34.392Z,51.212070
2023-02-27T09:36:34.379Z,51.212112
2023-02-27T09:37:34.345Z,51.212006
2023-02-27T09:38:34.338Z,51.212078
2023-02-27T09:39:34.345Z,51.212170
2023-02-27T09:40:34.347Z,51.212128
2023-02-27T09:41:34.336Z,51.212070
2023-02-27T09:42:34.315Z,51.212116
2023-02-27T09:43:34.351Z,51.212067
2023-02-27T09:44:45.613Z,51.212177
2023-02-27T09:45:36.342Z,51.212093
2023-02-27T09:46:34.285Z,51.212109
2023-02-27T09:47:34.267Z,51.212078
2023-02-27T09:48:34.290Z,51.212124
2023-02-27T09:49:34.269Z,51.212219
2023-02-27T09:50:34.250Z,51.212090
2023-02-27T09:51:34.303Z,51.212139
2023-02-27T09:52:34.259Z,51.212158
2023-02-27T09:53:34.271Z,51.212093
2023-02-27T09:54:34.317Z,51.212013
2023-02-27T09:55:34.228Z,51.212086
2023-02-27T09:56:34.242Z,51.212097
2023-02-27T09:57:34.239Z,51.212067
2023-02-27T09:58:34.225Z,51.212105
2023-02-27T09:59:34.230Z,51.212078
2023-02-27T10:00:34.260Z,51.212162
2023-02-27T10:01:34.231Z,51.212101
2023-02-27T10:02:34.276Z,51.212120
2023-02-27T10:03:34.382Z,51.212254
2023-02-27T10:04:34.193Z,51.212128
2023-02-27T10:05:34.175Z,51.212002
2023-02-27T10:06:34.200Z,51.212002
2023-02-27T10:07:34.173Z,51.212070
2023-02-27T10:08:35.128Z,51.212177
2023-02-27T10:09:34.134Z,51.212234
2023-02-27T10:10:34.131Z,51.212082
2023-02-27T10:11:34.132Z,51.211998
2023-02-27T10:12:34.145Z,51.212078
2023-02-27T10:13:34.104Z,51.212139
2023-02-27T10:14:34.108Z,51.212055
2023-02-27T10:15:34.116Z,51.211994
2023-02-27T10:16:34.126Z,51.212040
2023-02-27T10:17:34.103Z,51.212120
2023-02-27T10:18:34.066Z,51.212097
2023-02-27T10:19:34.073Z,51.212067
2023-02-27T10:20:34.113Z,51.212086
2023-02-27T10:21:34.276Z,51.212036
2023-02-27T10:22:34.068Z,51.212093
2023-02-27T10:23:34.052Z,51.212139
2023-02-27T10:24:34.049Z,51.212120
2023-02-27T10:25:34.024Z,51.212044
2023-02-27T10:26:34.075Z,51.211960
2023-02-27T10:27:34.018Z,51.212006
2023-02-27T10:28:34.000Z,51.212105
2023-02-27T10:29:34.011Z,51.212074
2023-02-27T10:30:35.111Z,51.212044
2023-02-27T10:31:35.152Z,51.212067
2023-02-27T10:32:34.010Z,51.212055
2023-02-27T10:33:33.981Z,51.212040
2023-02-27T10:34:34.031Z,51.212238
2023-02-27T10:35:33.999Z,51.211910
2023-02-27T10:36:34.875Z,51.212059
2023-02-27T10:37:34.989Z,51.212059
2023-02-27T10:38:33.952Z,51.211987
2023-02-27T10:39:33.953Z,51.211918
2023-02-27T10:40:33.941Z,51.212070
2023-02-27T10:41:33.942Z,51.212032
2023-02-27T10:42:34.682Z,51.212032
2023-02-27T10:43:33.978Z,51.212219
2023-02-27T10:44:34.525Z,51.212112
2023-02-27T10:45:33.906Z,51.212105
2023-02-27T10:46:33.936Z,51.211899
2023-02-27T10:47:33.910Z,51.211632
2023-02-27T10:48:33.927Z,51.212063
2023-02-27T10:49:33.891Z,51.211960
2023-02-27T10:50:33.878Z,51.211941
2023-02-27T10:51:33.882Z,51.212006
2023-02-27T10:52:33.884Z,51.212090
2023-02-27T10:53:33.858Z,51.212021
2023-02-27T10:54:33.846Z,51.211967
2023-02-27T10:55:33.854Z,51.211903
2023-02-27T10:56:33.842Z,51.212036
2023-02-27T10:57:33.840Z,51.211941
2023-02-27T10:58:34.871Z,51.212147
2023-02-27T10:59:34.823Z,51.212143
2023-02-27T11:00:34.675Z,51.212105
2023-02-27T11:01:33.883Z,51.212315
2023-02-27T11:02:33.797Z,51.212055
2023-02-27T11:03:33.897Z,51.212219
2023-02-27T11:04:33.887Z,51.212105
2023-02-27T11:05:33.825Z,51.212154
2023-02-27T11:06:33.766Z,51.211929
2023-02-27T11:07:33.808Z,51.211933
2023-02-27T11:08:33.796Z,51.211979
2023-02-27T11:09:33.779Z,51.211815
2023-02-27T11:10:34.677Z,51.211998
2023-02-27T11:11:33.756Z,51.212177
2023-02-27T11:12:33.726Z,51.212124
2023-02-27T11:13:33.759Z,51.211788
2023-02-27T11:14:33.726Z,51.211529
2023-02-27T11:15:33.829Z,51.211960
2023-02-27T11:16:33.701Z,51.212105
2023-02-27T11:17:33.685Z,51.212097
2023-02-27T11:18:33.702Z,51.212105
2023-02-27T11:19:33.676Z,51.212025
2023-02-27T11:20:33.691Z,51.211979
2023-02-27T11:21:33.683Z,51.211998
2023-02-27T11:22:33.685Z,51.212086
2023-02-27T11:23:33.659Z,51.212124
2023-02-27T11:24:34.683Z,51.212074